createdAt,value
2023-01-08T00:00:44.577Z,0.00
2023-01-08T00:01:44.443Z,0.00
2023-01-08T00:02:44.489Z,0.00
2023-01-08T00:03:44.597Z,0.00
2023-01-08T00:04:44.439Z,0.00
2023-01-08T00:05:44.391Z,0.00
2023-01-08T00:06:44.392Z,0.00
2023-01-08T00:07:44.380Z,0.00
2023-01-08T00:08:44.392Z,0.00
2023-01-08T00:09:44.330Z,0.00
2023-01-08T00:10:44.341Z,0.00
2023-01-08T00:11:44.347Z,0.00
2023-01-08T00:12:44.319Z,0.00
2023-01-08T00:13:44.311Z,0.00
2023-01-08T00:14:44.309Z,0.00
2023-01-08T00:15:44.352Z,0.00
2023-01-08T00:16:44.333Z,0.00
2023-01-08T00:17:44.290Z,0.00
2023-01-08T00:18:44.257Z,0.00
2023-01-08T00:19:44.234Z,0.00
2023-01-08T00:20:44.241Z,0.00
2023-01-08T00:21:44.207Z,0.00
2023-01-08T00:22:44.190Z,0.00
2023-01-08T00:23:44.189Z,0.00
2023-01-08T00:24:44.491Z,0.00
2023-01-08T00:25:44.206Z,0.00
2023-01-08T00:26:44.516Z,0.00
2023-01-08T00:27:44.176Z,0.00
2023-01-08T00:28:44.132Z,0.00
2023-01-08T00:29:44.112Z,0.00
2023-01-08T00:30:44.169Z,0.00
2023-01-08T00:31:44.964Z,0.00
2023-01-08T00:32:44.092Z,0.00
2023-01-08T00:33:45.286Z,0.00
2023-01-08T00:34:44.129Z,0.00
2023-01-08T00:35:44.164Z,0.00
2023-01-08T00:36:44.101Z,0.00
2023-01-08T00:37:44.733Z,0.00
2023-01-08T00:38:44.005Z,0.00
2023-01-08T00:39:43.996Z,0.00
2023-01-08T00:40:44.011Z,0.00
2023-01-08T00:41:52.295Z,0.00
2023-01-08T00:42:52.253Z,0.00
2023-01-08T00:43:51.201Z,0.00
2023-01-08T00:44:51.193Z,0.00
2023-01-08T00:45:51.283Z,0.00
2023-01-08T00:46:44.657Z,0.00
2023-01-08T00:47:43.909Z,0.00
2023-01-08T00:48:43.894Z,0.00
2023-01-08T00:49:43.908Z,0.00
2023-01-08T00:50:43.899Z,0.00
2023-01-08T00:51:43.849Z,0.00
2023-01-08T00:52:43.890Z,0.00
2023-01-08T00:53:43.866Z,0.00
2023-01-08T00:54:43.822Z,0.00
2023-01-08T00:55:43.855Z,0.00
2023-01-08T00:56:43.810Z,0.00
2023-01-08T00:57:43.816Z,0.00
2023-01-08T00:58:43.782Z,0.00
2023-01-08T00:59:43.789Z,0.00
2023-01-08T01:00:43.820Z,0.00
2023-01-08T01:01:43.846Z,0.00
2023-01-08T01:02:43.722Z,0.00
2023-01-08T01:03:43.756Z,0.00
2023-01-08T01:04:43.708Z,0.00
2023-01-08T01:05:43.738Z,0.00
2023-01-08T01:06:44.686Z,0.00
2023-01-08T01:07:43.715Z,0.00
2023-01-08T01:08:43.673Z,0.00
2023-01-08T01:09:43.642Z,0.00
2023-01-08T01:10:43.922Z,0.00
2023-01-08T01:11:43.638Z,0.00
2023-01-08T01:12:43.618Z,0.00
2023-01-08T01:13:43.828Z,0.00
2023-01-08T01:14:43.611Z,0.00
2023-01-08T01:15:43.606Z,0.00
2023-01-08T01:16:43.682Z,0.00
2023-01-08T01:17:43.640Z,0.00
2023-01-08T01:18:43.543Z,0.00
2023-01-08T01:19:43.545Z,0.00
2023-01-08T01:20:43.545Z,0.00
2023-01-08T01:21:43.525Z,0.00
2023-01-08T01:22:43.512Z,0.00
2023-01-08T01:23:43.531Z,0.00
2023-01-08T01:24:43.479Z,0.00
2023-01-08T01:25:45.760Z,0.00
2023-01-08T01:26:44.194Z,0.00
2023-01-08T01:27:43.495Z,0.00
2023-01-08T01:28:43.452Z,0.00
2023-01-08T01:29:43.419Z,0.00
2023-01-08T01:30:43.499Z,0.00
2023-01-08T01:31:43.407Z,0.00
2023-01-08T01:32:43.396Z,0.00
2023-01-08T01:33:43.627Z,0.00
2023-01-08T01:34:43.377Z,0.00
2023-01-08T01:35:43.385Z,0.00
2023-01-08T01:36:44.091Z,0.00
2023-01-08T01:37:43.336Z,0.00
2023-01-08T01:38:43.632Z,0.00
2023-01-08T01:39:43.310Z,0.00
2023-01-08T01:40:43.314Z,0.00
2023-01-08T01:41:43.304Z,0.00
2023-01-08T01:42:43.315Z,0.00
2023-01-08T01:43:43.307Z,0.00
2023-01-08T01:44:43.303Z,0.00
2023-01-08T01:45:43.328Z,0.00
2023-01-08T01:46:44.067Z,0.00
2023-01-08T01:47:43.237Z,0.00
2023-01-08T01:48:43.230Z,0.00
2023-01-08T01:49:43.188Z,0.00
2023-01-08T01:50:43.200Z,0.00
2023-01-08T01:51:43.201Z,0.00
2023-01-08T01:52:43.163Z,0.00
2023-01-08T01:53:43.136Z,0.00
2023-01-08T01:54:43.216Z,0.00
2023-01-08T01:55:43.574Z,0.00
2023-01-08T01:56:43.155Z,0.00
2023-01-08T01:57:43.089Z,0.00
2023-01-08T01:58:43.118Z,0.00
2023-01-08T01:59:43.070Z,0.00
2023-01-08T02:00:43.087Z,0.00
2023-01-08T02:01:43.212Z,0.00
2023-01-08T02:02:43.058Z,0.00
2023-01-08T02:03:43.083Z,0.00
2023-01-08T02:04:43.021Z,0.00
2023-01-08T02:05:43.056Z,0.00
2023-01-08T02:06:43.073Z,0.00
2023-01-08T02:07:42.997Z,0.00
2023-01-08T02:08:43.013Z,0.00
2023-01-08T02:09:42.970Z,0.00
2023-01-08T02:10:42.997Z,0.00
2023-01-08T02:11:42.983Z,0.00
2023-01-08T02:12:42.939Z,0.00
2023-01-08T02:13:42.931Z,0.00
2023-01-08T02:14:42.916Z,0.00
2023-01-08T02:15:42.962Z,0.00
2023-01-08T02:16:42.892Z,0.00
2023-01-08T02:17:42.898Z,0.00
2023-01-08T02:18:42.867Z,0.00
2023-01-08T02:19:42.913Z,0.00
2023-01-08T02:20:42.849Z,0.00
2023-01-08T02:21:42.826Z,0.00
2023-01-08T02:22:42.839Z,0.00
2023-01-08T02:23:42.806Z,0.00
2023-01-08T02:24:42.796Z,0.00
2023-01-08T02:25:42.790Z,0.00
2023-01-08T02:26:43.191Z,0.00
2023-01-08T02:27:42.753Z,0.00
2023-01-08T02:28:42.754Z,0.00
2023-01-08T02:29:42.740Z,0.00
2023-01-08T02:30:42.786Z,0.00
2023-01-08T02:31:42.696Z,0.00
2023-01-08T02:32:42.720Z,0.00
2023-01-08T02:33:42.737Z,0.00
2023-01-08T02:34:42.736Z,0.00
2023-01-08T02:35:42.689Z,0.00
2023-01-08T02:36:42.670Z,0.00
2023-01-08T02:37:42.633Z,0.00
2023-01-08T02:38:42.743Z,0.00
2023-01-08T02:39:42.658Z,0.00
2023-01-08T02:40:42.916Z,0.00
2023-01-08T02:41:42.608Z,0.00
2023-01-08T02:42:42.573Z,0.00
2023-01-08T02:43:42.559Z,0.00
2023-01-08T02:44:42.545Z,0.00
2023-01-08T02:45:50.385Z,0.00
2023-01-08T02:46:49.791Z,0.00
2023-01-08T02:47:50.777Z,0.00
2023-01-08T02:48:49.754Z,0.00
2023-01-08T02:49:50.780Z,0.00
2023-01-08T02:50:50.757Z,0.00
2023-01-08T02:51:42.481Z,0.00
2023-01-08T02:52:42.440Z,0.00
2023-01-08T02:53:42.461Z,0.00
2023-01-08T02:54:42.480Z,0.00
2023-01-08T02:55:42.441Z,0.00
2023-01-08T02:56:42.401Z,0.00
2023-01-08T02:57:42.458Z,0.00
2023-01-08T02:58:42.382Z,0.00
2023-01-08T02:59:42.389Z,0.00
2023-01-08T03:00:42.413Z,0.00
2023-01-08T03:01:42.456Z,0.00
2023-01-08T03:02:42.335Z,0.00
2023-01-08T03:03:42.324Z,0.00
2023-01-08T03:04:42.344Z,0.00
2023-01-08T03:05:42.323Z,0.00
2023-01-08T03:06:42.305Z,0.00
2023-01-08T03:07:42.305Z,0.00
2023-01-08T03:08:42.315Z,0.00
2023-01-08T03:09:42.262Z,0.00
2023-01-08T03:10:42.256Z,0.00
2023-01-08T03:11:42.282Z,0.00
2023-01-08T03:12:42.225Z,0.00
2023-01-08T03:13:42.222Z,0.00
2023-01-08T03:14:42.225Z,0.00
2023-01-08T03:15:42.253Z,0.00
2023-01-08T03:16:42.243Z,0.00
2023-01-08T03:17:42.166Z,0.00
2023-01-08T03:18:42.154Z,0.00
2023-01-08T03:19:42.152Z,0.00
2023-01-08T03:20:42.124Z,0.00
2023-01-08T03:21:42.125Z,0.00
2023-01-08T03:22:42.110Z,0.00
2023-01-08T03:23:42.107Z,0.00
2023-01-08T03:24:42.119Z,0.00
2023-01-08T03:25:42.098Z,0.00
2023-01-08T03:26:42.090Z,0.00
2023-01-08T03:27:42.048Z,0.00
2023-01-08T03:28:42.036Z,0.00
2023-01-08T03:29:42.033Z,0.00
2023-01-08T03:30:42.100Z,0.00
2023-01-08T03:31:41.999Z,0.00
2023-01-08T03:32:42.001Z,0.00
2023-01-08T03:33:41.996Z,0.00
2023-01-08T03:34:41.964Z,0.00
2023-01-08T03:35:41.983Z,0.00
2023-01-08T03:36:41.999Z,0.00
2023-01-08T03:37:42.194Z,0.00
2023-01-08T03:38:41.929Z,0.00
2023-01-08T03:39:41.982Z,0.00
2023-01-08T03:40:41.903Z,0.00
2023-01-08T03:41:41.905Z,0.00
2023-01-08T03:42:41.868Z,0.00
2023-01-08T03:43:42.171Z,0.00
2023-01-08T03:44:41.839Z,0.00
2023-01-08T03:45:41.837Z,0.00
2023-01-08T03:46:41.902Z,0.00
2023-01-08T03:47:41.812Z,0.00
2023-01-08T03:48:41.798Z,0.00
2023-01-08T03:49:41.807Z,0.00
2023-01-08T03:50:41.777Z,0.00
2023-01-08T03:51:41.807Z,0.00
2023-01-08T03:52:41.772Z,0.00
2023-01-08T03:53:41.808Z,0.00
2023-01-08T03:54:41.729Z,0.00
2023-01-08T03:55:41.719Z,0.00
2023-01-08T03:56:41.739Z,0.00
2023-01-08T03:57:41.692Z,0.00
2023-01-08T03:58:41.687Z,0.00
2023-01-08T03:59:41.692Z,0.00
2023-01-08T04:00:41.683Z,0.00
2023-01-08T04:01:41.816Z,0.00
2023-01-08T04:02:41.702Z,0.00
2023-01-08T04:03:41.660Z,0.00
2023-01-08T04:04:41.672Z,0.00
2023-01-08T04:05:41.628Z,0.00
2023-01-08T04:06:41.606Z,0.00
2023-01-08T04:07:41.585Z,0.00
2023-01-08T04:08:42.562Z,0.00
2023-01-08T04:09:41.585Z,0.00
2023-01-08T04:10:41.556Z,0.00
2023-01-08T04:11:41.535Z,0.00
2023-01-08T04:12:41.520Z,0.00
2023-01-08T04:13:41.549Z,0.00
2023-01-08T04:14:41.494Z,0.00
2023-01-08T04:15:41.551Z,0.00
2023-01-08T04:16:41.510Z,0.00
2023-01-08T04:17:41.464Z,0.00
2023-01-08T04:18:41.484Z,0.00
2023-01-08T04:19:41.465Z,0.00
2023-01-08T04:20:41.445Z,0.00
2023-01-08T04:21:41.413Z,0.00
2023-01-08T04:22:41.413Z,0.00
2023-01-08T04:23:41.437Z,0.00
2023-01-08T04:24:41.434Z,0.00
2023-01-08T04:25:41.427Z,0.00
2023-01-08T04:26:41.374Z,0.00
2023-01-08T04:27:41.354Z,0.00
2023-01-08T04:28:41.324Z,0.00
2023-01-08T04:29:42.104Z,0.00
2023-01-08T04:30:41.455Z,0.00
2023-01-08T04:31:41.322Z,0.00
2023-01-08T04:32:41.289Z,0.00
2023-01-08T04:33:41.306Z,0.00
2023-01-08T04:34:41.833Z,0.00
2023-01-08T04:35:41.276Z,0.00
2023-01-08T04:36:41.227Z,0.00
2023-01-08T04:37:41.236Z,0.00
2023-01-08T04:38:41.225Z,0.00
2023-01-08T04:39:41.221Z,0.00
2023-01-08T04:40:41.238Z,0.00
2023-01-08T04:41:41.201Z,0.00
2023-01-08T04:42:41.166Z,0.00
2023-01-08T04:43:41.167Z,0.00
2023-01-08T04:44:41.160Z,0.00
2023-01-08T04:45:41.147Z,0.00
2023-01-08T04:46:41.184Z,0.00
2023-01-08T04:47:41.893Z,0.00
2023-01-08T04:48:41.150Z,0.00
2023-01-08T04:49:41.088Z,0.00
2023-01-08T04:50:41.114Z,0.00
2023-01-08T04:51:48.321Z,0.00
2023-01-08T04:52:49.880Z,0.00
2023-01-08T04:53:49.297Z,0.00
2023-01-08T04:54:48.334Z,0.00
2023-01-08T04:55:48.563Z,0.00
2023-01-08T04:56:49.780Z,0.00
2023-01-08T04:57:40.987Z,0.00
2023-01-08T04:58:41.009Z,0.00
2023-01-08T04:59:40.971Z,0.00
2023-01-08T05:00:40.981Z,0.00
2023-01-08T05:01:41.086Z,0.00
2023-01-08T05:02:41.140Z,0.00
2023-01-08T05:03:40.941Z,0.00
2023-01-08T05:04:40.931Z,0.00
2023-01-08T05:05:40.948Z,0.00
2023-01-08T05:06:40.907Z,0.00
2023-01-08T05:07:40.892Z,0.00
2023-01-08T05:08:40.869Z,0.00
2023-01-08T05:09:40.885Z,0.00
2023-01-08T05:10:40.854Z,0.00
2023-01-08T05:11:40.850Z,0.00
2023-01-08T05:12:40.875Z,0.00
2023-01-08T05:13:40.835Z,0.00
2023-01-08T05:14:40.793Z,0.00
2023-01-08T05:15:40.861Z,0.00
2023-01-08T05:16:40.793Z,0.00
2023-01-08T05:17:40.768Z,0.00
2023-01-08T05:18:40.768Z,0.00
2023-01-08T05:19:40.770Z,0.00
2023-01-08T05:20:40.806Z,0.00
2023-01-08T05:21:40.723Z,0.00
2023-01-08T05:22:40.713Z,0.00
2023-01-08T05:23:40.691Z,0.00
2023-01-08T05:24:40.677Z,0.00
2023-01-08T05:25:40.684Z,0.00
2023-01-08T05:26:40.993Z,0.00
2023-01-08T05:27:40.646Z,0.00
2023-01-08T05:28:41.552Z,0.00
2023-01-08T05:29:40.636Z,0.00
2023-01-08T05:30:40.639Z,0.00
2023-01-08T05:31:40.594Z,0.00
2023-01-08T05:32:40.588Z,0.00
2023-01-08T05:33:40.589Z,0.00
2023-01-08T05:34:40.566Z,0.00
2023-01-08T05:35:40.564Z,0.00
2023-01-08T05:36:40.701Z,0.00
2023-01-08T05:37:40.851Z,0.00
2023-01-08T05:38:40.523Z,0.00
2023-01-08T05:39:40.508Z,0.00
2023-01-08T05:40:40.527Z,0.00
2023-01-08T05:41:40.489Z,0.00
2023-01-08T05:42:40.488Z,0.00
2023-01-08T05:43:40.458Z,0.00
2023-01-08T05:44:40.465Z,0.00
2023-01-08T05:45:40.454Z,0.00
2023-01-08T05:46:40.498Z,0.00
2023-01-08T05:47:40.451Z,0.00
2023-01-08T05:48:40.394Z,0.00
2023-01-08T05:49:40.406Z,0.00
2023-01-08T05:50:40.411Z,0.00
2023-01-08T05:51:40.389Z,0.00
2023-01-08T05:52:40.354Z,0.00
2023-01-08T05:53:40.791Z,0.00
2023-01-08T05:54:40.437Z,0.00
2023-01-08T05:55:40.321Z,0.00
2023-01-08T05:56:40.290Z,0.00
2023-01-08T05:57:40.323Z,0.00
2023-01-08T05:58:40.290Z,0.00
2023-01-08T05:59:40.284Z,0.00
2023-01-08T06:00:40.263Z,0.00
2023-01-08T06:01:40.371Z,0.00
2023-01-08T06:02:40.281Z,0.00
2023-01-08T06:03:40.218Z,0.00
2023-01-08T06:04:41.263Z,0.00
2023-01-08T06:05:40.209Z,0.00
2023-01-08T06:06:40.177Z,0.00
2023-01-08T06:07:40.231Z,0.00
2023-01-08T06:08:40.190Z,0.00
2023-01-08T06:09:40.162Z,0.00
2023-01-08T06:10:40.184Z,0.00
2023-01-08T06:11:40.145Z,0.00
2023-01-08T06:12:40.321Z,0.00
2023-01-08T06:13:40.099Z,0.00
2023-01-08T06:14:41.236Z,0.00
2023-01-08T06:15:40.181Z,0.00
2023-01-08T06:16:40.085Z,0.00
2023-01-08T06:17:40.080Z,0.00
2023-01-08T06:18:40.095Z,0.00
2023-01-08T06:19:40.041Z,0.00
2023-01-08T06:20:40.021Z,0.00
2023-01-08T06:21:40.053Z,0.00
2023-01-08T06:22:40.020Z,0.00
2023-01-08T06:23:40.016Z,0.00
2023-01-08T06:24:40.055Z,0.00
2023-01-08T06:25:40.292Z,0.00
2023-01-08T06:26:39.945Z,0.00
2023-01-08T06:27:40.771Z,0.00
2023-01-08T06:28:39.942Z,0.00
2023-01-08T06:29:39.956Z,0.00
2023-01-08T06:30:39.909Z,0.00
2023-01-08T06:31:39.998Z,0.00
2023-01-08T06:32:39.927Z,0.00
2023-01-08T06:33:39.891Z,0.00
2023-01-08T06:34:39.854Z,0.00
2023-01-08T06:35:39.887Z,0.00
2023-01-08T06:36:39.832Z,0.00
2023-01-08T06:37:39.826Z,0.00
2023-01-08T06:38:39.875Z,0.00
2023-01-08T06:39:39.824Z,0.00
2023-01-08T06:40:39.833Z,0.00
2023-01-08T06:41:40.564Z,0.00
2023-01-08T06:42:39.773Z,0.00
2023-01-08T06:43:39.761Z,0.00
2023-01-08T06:44:39.746Z,0.00
2023-01-08T06:45:39.751Z,0.00
2023-01-08T06:46:40.063Z,0.00
2023-01-08T06:47:39.710Z,0.00
2023-01-08T06:48:39.748Z,0.00
2023-01-08T06:49:39.715Z,0.00
2023-01-08T06:50:39.687Z,0.00
2023-01-08T06:51:39.645Z,0.00
2023-01-08T06:52:39.695Z,0.00
2023-01-08T06:53:39.634Z,0.00
2023-01-08T06:54:39.652Z,0.00
2023-01-08T06:55:40.358Z,0.00
2023-01-08T06:56:53.591Z,0.00
2023-01-08T06:57:46.856Z,0.00
2023-01-08T06:58:46.827Z,0.00
2023-01-08T06:59:46.827Z,0.00
2023-01-08T07:00:46.809Z,0.00
2023-01-08T07:01:39.746Z,0.00
2023-01-08T07:02:39.636Z,0.00
2023-01-08T07:03:39.617Z,0.00
2023-01-08T07:04:39.517Z,4.00
2023-01-08T07:05:39.514Z,4.00
2023-01-08T07:06:39.482Z,4.00
2023-01-08T07:07:39.524Z,4.00
2023-01-08T07:08:40.670Z,4.00
2023-01-08T07:09:39.466Z,4.00
2023-01-08T07:10:39.561Z,4.00
2023-01-08T07:11:39.427Z,8.00
2023-01-08T07:12:39.422Z,8.00
2023-01-08T07:13:39.422Z,12.00
2023-01-08T07:14:39.426Z,12.00
2023-01-08T07:15:39.422Z,16.00
2023-01-08T07:16:39.464Z,20.00
2023-01-08T07:17:39.508Z,20.00
2023-01-08T07:18:39.404Z,24.00
2023-01-08T07:19:39.335Z,24.00
2023-01-08T07:20:39.364Z,24.00
2023-01-08T07:21:39.576Z,28.00
2023-01-08T07:22:39.305Z,28.00
2023-01-08T07:23:39.282Z,28.00
2023-01-08T07:24:39.334Z,32.00
2023-01-08T07:25:39.332Z,32.00
2023-01-08T07:26:39.256Z,32.00
2023-01-08T07:27:39.254Z,36.00
2023-01-08T07:28:40.266Z,36.00
2023-01-08T07:29:39.262Z,40.00
2023-01-08T07:30:39.282Z,44.00
2023-01-08T07:31:39.255Z,52.00
2023-01-08T07:32:39.185Z,60.00
2023-01-08T07:33:39.148Z,76.00
2023-01-08T07:34:39.196Z,88.00
2023-01-08T07:35:39.159Z,112.00
2023-01-08T07:36:39.137Z,128.00
2023-01-08T07:37:39.119Z,144.00
2023-01-08T07:38:40.329Z,164.00
2023-01-08T07:39:39.100Z,180.00
2023-01-08T07:40:39.755Z,192.00
2023-01-08T07:41:39.078Z,208.00
2023-01-08T07:42:39.949Z,224.00
2023-01-08T07:43:39.045Z,236.00
2023-01-08T07:44:39.300Z,252.00
2023-01-08T07:45:39.038Z,268.00
2023-01-08T07:46:39.025Z,288.00
2023-01-08T07:47:39.026Z,308.00
2023-01-08T07:48:39.266Z,324.00
2023-01-08T07:49:38.983Z,340.00
2023-01-08T07:50:40.812Z,360.00
2023-01-08T07:51:38.963Z,380.00
2023-01-08T07:52:38.952Z,404.00
2023-01-08T07:53:38.929Z,436.00
2023-01-08T07:54:38.919Z,464.00
2023-01-08T07:55:38.955Z,488.00
2023-01-08T07:56:38.891Z,504.00
2023-01-08T07:57:38.888Z,520.00
2023-01-08T07:58:38.921Z,536.00
2023-01-08T07:59:38.871Z,556.00
2023-01-08T08:00:38.865Z,584.00
2023-01-08T08:01:39.100Z,620.00
2023-01-08T08:02:38.960Z,652.00
2023-01-08T08:03:39.078Z,684.00
2023-01-08T08:04:38.975Z,724.00
2023-01-08T08:05:39.402Z,748.00
2023-01-08T08:06:39.683Z,780.00
2023-01-08T08:07:39.213Z,804.00
2023-01-08T08:08:41.887Z,820.00
2023-01-08T08:09:39.054Z,840.00
2023-01-08T08:10:39.201Z,844.00
2023-01-08T08:11:38.832Z,844.00
2023-01-08T08:12:39.626Z,840.00
2023-01-08T08:13:38.963Z,836.00
2023-01-08T08:14:38.944Z,836.00
2023-01-08T08:15:38.674Z,820.00
2023-01-08T08:16:38.659Z,792.00
2023-01-08T08:17:39.487Z,748.00
2023-01-08T08:18:38.673Z,688.00
2023-01-08T08:19:40.440Z,640.00
2023-01-08T08:20:38.675Z,616.00
2023-01-08T08:21:39.835Z,616.00
2023-01-08T08:22:38.578Z,616.00
2023-01-08T08:23:38.599Z,616.00
2023-01-08T08:24:38.653Z,624.00
2023-01-08T08:25:38.583Z,640.00
2023-01-08T08:26:39.301Z,644.00
2023-01-08T08:27:38.557Z,640.00
2023-01-08T08:28:38.801Z,612.00
2023-01-08T08:29:38.777Z,588.00
2023-01-08T08:30:41.294Z,564.00
2023-01-08T08:31:38.535Z,540.00
2023-01-08T08:32:39.234Z,528.00
2023-01-08T08:33:38.483Z,524.00
2023-01-08T08:34:39.564Z,540.00
2023-01-08T08:35:38.635Z,576.00
2023-01-08T08:36:38.744Z,612.00
2023-01-08T08:37:39.401Z,636.00
2023-01-08T08:38:38.886Z,644.00
2023-01-08T08:39:38.427Z,644.00
2023-01-08T08:40:39.496Z,656.00
2023-01-08T08:41:39.312Z,688.00
2023-01-08T08:42:38.376Z,720.00
2023-01-08T08:43:39.217Z,756.00
2023-01-08T08:44:38.322Z,780.00
2023-01-08T08:45:38.340Z,804.00
2023-01-08T08:46:39.528Z,820.00
2023-01-08T08:47:38.756Z,844.00
2023-01-08T08:48:38.285Z,884.00
2023-01-08T08:49:38.654Z,948.00
2023-01-08T08:50:39.052Z,1004.00
2023-01-08T08:51:38.236Z,1060.00
2023-01-08T08:52:42.483Z,1112.00
2023-01-08T08:53:38.244Z,1176.00
2023-01-08T08:54:39.167Z,1248.00
2023-01-08T08:55:39.075Z,1324.00
2023-01-08T08:56:38.806Z,1404.00
2023-01-08T08:57:39.221Z,1484.00
2023-01-08T08:58:38.468Z,1552.00
2023-01-08T08:59:38.425Z,1608.00
2023-01-08T09:00:45.026Z,1648.00
2023-01-08T09:01:39.113Z,1688.00
2023-01-08T09:02:38.737Z,1748.00
2023-01-08T09:03:38.573Z,1832.00
2023-01-08T09:04:38.513Z,1912.00
2023-01-08T09:05:38.515Z,1992.00
2023-01-08T09:06:39.101Z,2080.00
2023-01-08T09:07:38.975Z,2168.00
2023-01-08T09:08:38.748Z,2288.00
2023-01-08T09:09:39.286Z,2416.00
2023-01-08T09:10:38.042Z,2560.00
2023-01-08T09:11:38.061Z,2680.00
2023-01-08T09:12:38.170Z,2824.00
2023-01-08T09:13:38.004Z,2900.00
2023-01-08T09:14:38.006Z,2932.00
2023-01-08T09:15:38.042Z,2956.00
2023-01-08T09:16:37.976Z,3056.00
2023-01-08T09:17:37.936Z,3204.00
2023-01-08T09:18:38.925Z,3292.00
2023-01-08T09:19:37.909Z,3448.00
2023-01-08T09:20:37.918Z,3544.00
2023-01-08T09:21:38.481Z,3540.00
2023-01-08T09:22:39.076Z,3508.00
2023-01-08T09:23:38.938Z,3480.00
2023-01-08T09:24:37.859Z,3420.00
2023-01-08T09:25:37.869Z,3332.00
2023-01-08T09:26:37.850Z,3052.00
2023-01-08T09:27:37.827Z,3124.00
2023-01-08T09:28:37.854Z,2976.00
2023-01-08T09:29:37.828Z,2948.00
2023-01-08T09:30:37.799Z,2936.00
2023-01-08T09:31:37.906Z,2936.00
2023-01-08T09:32:37.782Z,3092.00
2023-01-08T09:33:37.744Z,3064.00
2023-01-08T09:34:37.797Z,2956.00
2023-01-08T09:35:37.753Z,2844.00
2023-01-08T09:36:37.745Z,2936.00
2023-01-08T09:37:37.711Z,3196.00
2023-01-08T09:38:38.533Z,3028.00
2023-01-08T09:39:37.693Z,2936.00
2023-01-08T09:40:37.672Z,3024.00
2023-01-08T09:41:38.767Z,3020.00
2023-01-08T09:42:37.741Z,3024.00
2023-01-08T09:43:37.628Z,3072.00
2023-01-08T09:44:38.371Z,3092.00
2023-01-08T09:45:37.960Z,2788.00
2023-01-08T09:46:37.672Z,2796.00
2023-01-08T09:47:38.714Z,2768.00
2023-01-08T09:48:37.643Z,2776.00
2023-01-08T09:49:37.571Z,2640.00
2023-01-08T09:50:37.576Z,2520.00
2023-01-08T09:51:37.864Z,2440.00
2023-01-08T09:52:37.537Z,2384.00
2023-01-08T09:53:37.518Z,2288.00
2023-01-08T09:54:37.544Z,2344.00
2023-01-08T09:55:38.442Z,2400.00
2023-01-08T09:56:37.527Z,2588.00
2023-01-08T09:57:37.498Z,2900.00
2023-01-08T09:58:37.756Z,3420.00
2023-01-08T09:59:37.505Z,3512.00
2023-01-08T10:00:37.510Z,3488.00
2023-01-08T10:01:38.551Z,3436.00
2023-01-08T10:02:37.657Z,3108.00
2023-01-08T10:03:37.395Z,2736.00
2023-01-08T10:04:37.406Z,2472.00
2023-01-08T10:05:37.387Z,2184.00
2023-01-08T10:06:37.375Z,1872.00
2023-01-08T10:07:37.365Z,1644.00
2023-01-08T10:08:37.424Z,1532.00
2023-01-08T10:09:38.039Z,1448.00
2023-01-08T10:10:38.572Z,1400.00
2023-01-08T10:11:37.326Z,1416.00
2023-01-08T10:12:38.353Z,1424.00
2023-01-08T10:13:38.260Z,1368.00
2023-01-08T10:14:38.154Z,1288.00
2023-01-08T10:15:37.277Z,1280.00
2023-01-08T10:16:37.308Z,1372.00
2023-01-08T10:17:38.377Z,1512.00
2023-01-08T10:18:38.179Z,1624.00
2023-01-08T10:19:37.227Z,1700.00
2023-01-08T10:20:37.477Z,1772.00
2023-01-08T10:21:37.999Z,1840.00
2023-01-08T10:22:37.206Z,1936.00
2023-01-08T10:23:38.298Z,2036.00
2023-01-08T10:24:37.298Z,2096.00
2023-01-08T10:25:38.120Z,2104.00
2023-01-08T10:26:37.448Z,2112.00
2023-01-08T10:27:37.439Z,2216.00
2023-01-08T10:28:37.129Z,2328.00
2023-01-08T10:29:37.098Z,2720.00
2023-01-08T10:30:37.092Z,3024.00
2023-01-08T10:31:38.183Z,2760.00
2023-01-08T10:32:37.062Z,2828.00
2023-01-08T10:33:37.080Z,2888.00
2023-01-08T10:34:38.268Z,2872.00
2023-01-08T10:35:38.175Z,2928.00
2023-01-08T10:36:38.079Z,3024.00
2023-01-08T10:37:37.987Z,3072.00
2023-01-08T10:38:36.989Z,3020.00
2023-01-08T10:39:37.002Z,3112.00
2023-01-08T10:40:36.982Z,3340.00
2023-01-08T10:41:37.017Z,3920.00
2023-01-08T10:42:36.967Z,3556.00
2023-01-08T10:43:36.952Z,3956.00
2023-01-08T10:44:36.923Z,3464.00
2023-01-08T10:45:36.965Z,3340.00
2023-01-08T10:46:36.979Z,3404.00
2023-01-08T10:47:37.404Z,3560.00
2023-01-08T10:48:37.958Z,3804.00
2023-01-08T10:49:37.851Z,3816.00
2023-01-08T10:50:36.869Z,3672.00
2023-01-08T10:51:37.766Z,3508.00
2023-01-08T10:52:39.211Z,3208.00
2023-01-08T10:53:36.823Z,2996.00
2023-01-08T10:54:37.420Z,3056.00
2023-01-08T10:55:37.801Z,3028.00
2023-01-08T10:56:36.780Z,2872.00
2023-01-08T10:57:36.755Z,4240.00
2023-01-08T10:58:36.772Z,4576.00
2023-01-08T10:59:37.922Z,4312.00
2023-01-08T11:00:36.789Z,4948.00
2023-01-08T11:01:37.750Z,5284.00
2023-01-08T11:02:39.162Z,5220.00
2023-01-08T11:03:37.430Z,4884.00
2023-01-08T11:04:36.804Z,4688.00
2023-01-08T11:05:37.232Z,4844.00
2023-01-08T11:06:37.397Z,4772.00
2023-01-08T11:07:37.035Z,4312.00
2023-01-08T11:08:36.733Z,4220.00
2023-01-08T11:09:37.098Z,4244.00
2023-01-08T11:10:37.385Z,4088.00
2023-01-08T11:11:37.674Z,4028.00
2023-01-08T11:12:37.329Z,4120.00
2023-01-08T11:13:37.084Z,4244.00
2023-01-08T11:14:58.375Z,4236.00
2023-01-08T11:15:37.426Z,4236.00
2023-01-08T11:16:36.697Z,3992.00
2023-01-08T11:17:37.029Z,3676.00
2023-01-08T11:18:36.518Z,3824.00
2023-01-08T11:19:36.519Z,3320.00
2023-01-08T11:20:37.379Z,3264.00
2023-01-08T11:21:36.890Z,3220.00
2023-01-08T11:22:36.485Z,3224.00
2023-01-08T11:23:37.494Z,3424.00
2023-01-08T11:24:37.522Z,3504.00
2023-01-08T11:25:37.469Z,3684.00
2023-01-08T11:26:36.437Z,3796.00
2023-01-08T11:27:37.293Z,3448.00
2023-01-08T11:28:36.417Z,3024.00
2023-01-08T11:29:36.415Z,2840.00
2023-01-08T11:30:37.433Z,2644.00
2023-01-08T11:31:37.432Z,2388.00
2023-01-08T11:32:36.380Z,2380.00
2023-01-08T11:33:37.219Z,2560.00
2023-01-08T11:34:36.681Z,2784.00
2023-01-08T11:35:37.533Z,2988.00
2023-01-08T11:36:37.467Z,3828.00
2023-01-08T11:37:37.130Z,4012.00
2023-01-08T11:38:37.131Z,3696.00
2023-01-08T11:39:36.321Z,3560.00
2023-01-08T11:40:37.068Z,3716.00
2023-01-08T11:41:36.519Z,4676.00
2023-01-08T11:42:37.383Z,5748.00
2023-01-08T11:43:36.365Z,6076.00
2023-01-08T11:44:36.496Z,5104.00
2023-01-08T11:45:36.366Z,4220.00
2023-01-08T11:46:36.317Z,4756.00
2023-01-08T11:47:36.607Z,3784.00
2023-01-08T11:48:36.632Z,4692.00
2023-01-08T11:49:37.238Z,3564.00
2023-01-08T11:50:36.356Z,4572.00
2023-01-08T11:51:36.170Z,4564.00
2023-01-08T11:52:36.155Z,4392.00
2023-01-08T11:53:36.161Z,4480.00
2023-01-08T11:54:37.109Z,4384.00
2023-01-08T11:55:36.130Z,3744.00
2023-01-08T11:56:37.066Z,4212.00
2023-01-08T11:57:36.969Z,4108.00
2023-01-08T11:58:36.073Z,3156.00
2023-01-08T11:59:36.716Z,3168.00
2023-01-08T12:00:37.184Z,3232.00
2023-01-08T12:01:37.145Z,3272.00
2023-01-08T12:02:36.033Z,3296.00
2023-01-08T12:03:36.983Z,3508.00
2023-01-08T12:04:36.815Z,3552.00
2023-01-08T12:05:37.222Z,3448.00
2023-01-08T12:06:37.205Z,3348.00
2023-01-08T12:07:36.993Z,3324.00
2023-01-08T12:08:35.969Z,3352.00
2023-01-08T12:09:35.997Z,3568.00
2023-01-08T12:10:36.737Z,3776.00
2023-01-08T12:11:37.127Z,3852.00
2023-01-08T12:12:37.065Z,4040.00
2023-01-08T12:13:36.241Z,4252.00
2023-01-08T12:14:35.912Z,4148.00
2023-01-08T12:15:35.927Z,4620.00
2023-01-08T12:16:36.235Z,4512.00
2023-01-08T12:17:35.879Z,4116.00
2023-01-08T12:18:35.869Z,4472.00
2023-01-08T12:19:36.252Z,4372.00
2023-01-08T12:20:35.835Z,4348.00
2023-01-08T12:21:36.716Z,4296.00
2023-01-08T12:22:36.475Z,4260.00
2023-01-08T12:23:36.535Z,4192.00
2023-01-08T12:24:35.804Z,4092.00
2023-01-08T12:25:36.611Z,4024.00
2023-01-08T12:26:36.671Z,3984.00
2023-01-08T12:27:55.838Z,3996.00
2023-01-08T12:28:36.777Z,4028.00
2023-01-08T12:29:36.021Z,4036.00
2023-01-08T12:30:36.825Z,4040.00
2023-01-08T12:31:35.716Z,4028.00
2023-01-08T12:32:36.457Z,4012.00
2023-01-08T12:33:36.617Z,4016.00
2023-01-08T12:34:35.737Z,3988.00
2023-01-08T12:35:36.110Z,3988.00
2023-01-08T12:36:35.983Z,3960.00
2023-01-08T12:37:35.890Z,3928.00
2023-01-08T12:38:35.641Z,3916.00
2023-01-08T12:39:36.129Z,3844.00
2023-01-08T12:40:35.648Z,3660.00
2023-01-08T12:41:35.601Z,3740.00
2023-01-08T12:42:36.254Z,3756.00
2023-01-08T12:43:36.646Z,3744.00
2023-01-08T12:44:35.581Z,3724.00
2023-01-08T12:45:36.412Z,3696.00
2023-01-08T12:46:36.373Z,3592.00
2023-01-08T12:47:36.769Z,3700.00
2023-01-08T12:48:35.566Z,3700.00